createdAt,value
2018-02-22T00:00:50.317Z,63.87
2018-02-22T00:03:17.900Z,62.37
2018-02-22T00:05:46.315Z,62.63
2018-02-22T00:08:14.740Z,58.67
2018-02-22T00:10:42.325Z,57.60
2018-02-22T00:13:09.967Z,55.30
2018-02-22T00:15:37.526Z,63.60
2018-02-22T00:18:05.132Z,62.67
2018-02-22T00:20:36.518Z,57.40
2018-02-22T00:23:04.137Z,56.30
2018-02-22T00:25:32.497Z,57.43
2018-02-22T00:28:00.125Z,55.03
2018-02-22T00:30:27.718Z,56.97
2018-02-22T00:32:55.311Z,56.37
2018-02-22T00:35:23.901Z,52.67
2018-02-22T00:37:52.225Z,57.20
2018-02-22T00:40:19.782Z,56.13
2018-02-22T00:42:47.411Z,55.00
2018-02-22T00:45:15.843Z,51.60
2018-02-22T00:47:43.507Z,56.10
2018-02-22T00:50:11.112Z,53.23
2018-02-22T00:52:38.728Z,54.37
2018-02-22T00:55:06.326Z,58.27
2018-02-22T00:57:33.993Z,53.17
2018-02-22T01:00:01.587Z,53.40
2018-02-22T01:02:29.444Z,49.78
2018-02-22T01:04:57.057Z,52.93
2018-02-22T01:07:24.691Z,53.20
2018-02-22T01:09:52.277Z,52.03
2018-02-22T01:12:19.905Z,51.90
2018-02-22T01:14:48.906Z,48.55
2018-02-22T01:17:16.499Z,46.30
2018-02-22T01:19:44.139Z,45.37
2018-02-22T01:22:11.711Z,51.30
2018-02-22T01:24:39.309Z,51.93
2018-02-22T01:27:07.643Z,54.73
2018-02-22T01:29:35.209Z,47.57
2018-02-22T01:32:02.782Z,48.03
2018-02-22T01:34:30.332Z,47.90
2018-02-22T01:36:57.869Z,49.72
2018-02-22T01:39:26.311Z,53.30
2018-02-22T01:41:53.873Z,50.17
2018-02-22T01:44:21.468Z,50.87
2018-02-22T01:46:49.043Z,46.50
2018-02-22T01:49:16.673Z,47.43
2018-02-22T01:51:44.194Z,49.27
2018-02-22T01:54:11.850Z,41.70
2018-02-22T01:56:39.426Z,47.53
2018-02-22T01:59:07.039Z,52.90
2018-02-22T02:01:34.571Z,49.43
2018-02-22T02:04:02.577Z,49.83
2018-02-22T02:06:30.888Z,51.97
2018-02-22T02:08:58.462Z,44.13
2018-02-22T02:11:25.989Z,48.77
2018-02-22T02:13:53.542Z,48.20
2018-02-22T02:16:21.109Z,47.53
2018-02-22T02:18:48.690Z,47.77
2018-02-22T02:21:16.278Z,47.60
2018-02-22T02:23:44.973Z,46.22
2018-02-22T02:26:13.336Z,44.93
2018-02-22T02:28:40.903Z,49.23
2018-02-22T02:31:08.439Z,54.87
2018-02-22T02:33:35.995Z,49.70
2018-02-22T02:36:03.530Z,48.83
2018-02-22T02:38:31.851Z,46.40
2018-02-22T02:40:59.378Z,47.80
2018-02-22T02:43:26.964Z,44.83
2018-02-22T02:45:55.243Z,49.83
2018-02-22T02:48:22.794Z,44.27
2018-02-22T02:50:50.311Z,48.77
2018-02-22T02:53:18.643Z,53.20
2018-02-22T02:55:46.154Z,53.87
2018-02-22T02:58:13.710Z,47.37
2018-02-22T03:00:41.220Z,51.30
2018-02-22T03:03:08.773Z,48.73
2018-02-22T03:05:36.292Z,48.08
2018-02-22T03:08:04.626Z,50.83
2018-02-22T03:10:32.181Z,52.30
2018-02-22T03:12:59.708Z,55.07
2018-02-22T03:15:27.271Z,49.10
2018-02-22T03:17:54.833Z,49.22
2018-02-22T03:20:22.352Z,53.35
2018-02-22T03:22:49.973Z,57.50
2018-02-22T03:25:17.495Z,57.85
2018-02-22T03:27:45.062Z,59.72
2018-02-22T03:30:12.591Z,56.67
2018-02-22T03:32:40.174Z,62.83
2018-02-22T03:35:08.478Z,55.97
2018-02-22T03:37:36.024Z,64.63
2018-02-22T03:40:03.553Z,63.13
2018-02-22T03:42:31.100Z,66.17
2018-02-22T03:44:58.625Z,62.57
2018-02-22T03:47:26.138Z,62.70
2018-02-22T03:49:54.476Z,64.13
2018-02-22T03:52:21.993Z,70.70
2018-02-22T03:54:49.547Z,69.43
2018-02-22T03:57:17.281Z,72.10
2018-02-22T03:59:44.833Z,66.30
2018-02-22T04:02:12.385Z,67.62
2018-02-22T04:04:39.930Z,72.90
2018-02-22T04:07:07.451Z,74.03
2018-02-22T04:09:35.007Z,73.50
2018-02-22T04:12:02.548Z,73.43
2018-02-22T04:14:30.103Z,67.10
2018-02-22T04:16:57.667Z,79.00
2018-02-22T04:19:25.968Z,69.28
2018-02-22T04:21:53.540Z,80.20
2018-02-22T04:24:21.053Z,81.72
2018-02-22T04:26:48.617Z,72.93
2018-02-22T04:29:16.139Z,78.67
2018-02-22T04:31:43.689Z,83.60
2018-02-22T04:34:11.253Z,88.35
2018-02-22T04:36:38.768Z,79.10
2018-02-22T04:39:07.104Z,84.67
2018-02-22T04:41:34.625Z,85.10
2018-02-22T04:44:02.632Z,86.93
2018-02-22T04:46:30.144Z,83.78
2018-02-22T04:48:57.715Z,85.00
2018-02-22T04:51:25.248Z,82.13
2018-02-22T04:53:53.570Z,79.30
2018-02-22T04:56:21.091Z,85.63
2018-02-22T04:58:48.652Z,78.83
2018-02-22T05:01:16.191Z,93.05
2018-02-22T05:03:43.736Z,86.70
2018-02-22T05:06:11.323Z,87.82
2018-02-22T05:08:39.638Z,90.65
2018-02-22T05:11:07.157Z,87.07
2018-02-22T05:13:34.723Z,98.60
2018-02-22T05:16:03.012Z,91.28
2018-02-22T05:18:30.565Z,90.20
2018-02-22T05:20:58.849Z,88.40
2018-02-22T05:23:27.169Z,91.37
2018-02-22T05:25:54.675Z,83.00
2018-02-22T05:28:22.987Z,89.60
2018-02-22T05:30:50.541Z,86.40
2018-02-22T05:33:18.104Z,89.77
2018-02-22T05:35:45.743Z,84.00
2018-02-22T05:38:13.305Z,88.47
2018-02-22T05:40:40.833Z,86.57
2018-02-22T05:43:08.392Z,92.63
2018-02-22T05:45:35.943Z,98.50
2018-02-22T05:48:03.532Z,88.65
2018-02-22T05:50:31.919Z,91.30
2018-02-22T05:52:59.493Z,84.63
2018-02-22T05:55:27.011Z,99.50
2018-02-22T05:57:54.585Z,88.37
2018-02-22T06:00:22.664Z,94.90
2018-02-22T06:02:50.217Z,104.00
2018-02-22T06:05:18.558Z,98.37
2018-02-22T06:07:46.110Z,89.20
2018-02-22T06:10:13.625Z,103.53
2018-02-22T06:12:41.176Z,97.80
2018-02-22T06:15:09.746Z,107.73
2018-02-22T06:17:37.313Z,106.10
2018-02-22T06:20:04.843Z,117.82
2018-02-22T06:22:32.402Z,99.07
2018-02-22T06:24:59.953Z,113.40
2018-02-22T06:27:27.513Z,104.30
2018-02-22T06:29:55.033Z,104.78
2018-02-22T06:32:22.625Z,113.60
2018-02-22T06:34:50.180Z,106.93
2018-02-22T06:37:18.229Z,107.30
2018-02-22T06:39:45.742Z,96.97
2018-02-22T06:42:13.293Z,104.85
2018-02-22T06:44:40.869Z,108.18
2018-02-22T06:47:08.393Z,109.37
2018-02-22T06:49:35.950Z,104.83
2018-02-22T06:52:03.504Z,102.78
2018-02-22T06:54:31.088Z,98.40
2018-02-22T06:56:58.643Z,112.93
2018-02-22T06:59:26.225Z,98.87
2018-02-22T07:01:53.774Z,106.78
2018-02-22T07:04:21.324Z,99.87
2018-02-22T07:06:48.855Z,97.97
2018-02-22T07:09:16.407Z,96.77
2018-02-22T07:11:43.928Z,99.47
2018-02-22T07:14:11.482Z,97.33
2018-02-22T07:16:39.019Z,92.87
2018-02-22T07:19:06.644Z,95.80
2018-02-22T07:21:34.203Z,102.80
2018-02-22T07:24:01.797Z,98.33
2018-02-22T07:26:29.335Z,99.03
2018-02-22T07:28:56.878Z,96.30
2018-02-22T07:31:24.443Z,101.30
2018-02-22T07:33:51.984Z,95.37
2018-02-22T07:36:20.274Z,100.13
2018-02-22T07:38:47.834Z,97.30
2018-02-22T07:41:15.355Z,101.50
2018-02-22T07:43:42.913Z,99.03
2018-02-22T07:46:10.433Z,98.37
2018-02-22T07:48:37.991Z,86.07
2018-02-22T07:51:05.522Z,99.70
2018-02-22T07:53:33.083Z,87.20
2018-02-22T07:56:00.643Z,87.37
2018-02-22T07:58:28.173Z,92.30
2018-02-22T08:00:56.525Z,91.67
2018-02-22T08:03:24.081Z,83.23
2018-02-22T08:05:51.628Z,91.33
2018-02-22T08:08:19.199Z,90.43
2018-02-22T08:10:46.720Z,91.37
2018-02-22T08:13:15.052Z,86.27
2018-02-22T08:15:42.915Z,90.17
2018-02-22T08:18:10.468Z,94.73
2018-02-22T08:20:38.033Z,88.47
2018-02-22T08:23:05.597Z,97.93
2018-02-22T08:25:33.125Z,91.53
2018-02-22T08:28:00.693Z,93.57
2018-02-22T08:30:28.198Z,92.13
2018-02-22T08:32:56.516Z,93.33
2018-02-22T08:35:24.066Z,90.67
2018-02-22T08:37:51.620Z,91.97
2018-02-22T08:40:19.140Z,88.23
2018-02-22T08:42:46.733Z,84.00
2018-02-22T08:45:14.290Z,89.17
2018-02-22T08:47:41.851Z,85.57
2018-02-22T08:50:10.121Z,86.00
2018-02-22T08:52:38.468Z,79.53
2018-02-22T08:55:06.021Z,90.00
2018-02-22T08:57:33.553Z,83.80
2018-02-22T09:00:01.093Z,83.47
2018-02-22T09:02:28.623Z,89.83
2018-02-22T09:04:56.950Z,94.33
2018-02-22T09:07:24.475Z,83.37
2018-02-22T09:09:52.068Z,90.60
2018-02-22T09:12:19.582Z,91.47
2018-02-22T09:14:47.124Z,93.57
2018-02-22T09:17:14.625Z,88.60
2018-02-22T09:19:42.184Z,86.37
2018-02-22T09:22:09.709Z,87.53
2018-02-22T09:24:37.278Z,82.27
2018-02-22T09:27:04.823Z,79.20
2018-02-22T09:29:32.389Z,88.67
2018-02-22T09:32:00.688Z,83.13
2018-02-22T09:34:28.237Z,86.07
2018-02-22T09:36:56.524Z,86.83
2018-02-22T09:39:24.097Z,77.20
2018-02-22T09:41:51.642Z,81.07
2018-02-22T09:44:19.222Z,85.07
2018-02-22T09:46:46.761Z,81.97
2018-02-22T09:49:14.338Z,82.23
2018-02-22T09:51:41.866Z,87.97
2018-02-22T09:54:10.186Z,81.60
2018-02-22T09:56:37.722Z,85.53
2018-02-22T09:59:05.292Z,81.43
2018-02-22T10:01:32.812Z,84.93
2018-02-22T10:04:01.168Z,82.30
2018-02-22T10:06:28.704Z,78.60
2018-02-22T10:08:56.219Z,80.87
2018-02-22T10:11:24.546Z,80.70
2018-02-22T10:13:52.074Z,78.50
2018-02-22T10:16:19.614Z,87.27
2018-02-22T10:18:47.130Z,84.30
2018-02-22T10:21:14.691Z,82.73
2018-02-22T10:23:42.234Z,83.43
2018-02-22T10:26:09.764Z,83.33
2018-02-22T10:28:37.340Z,80.30
2018-02-22T10:31:04.855Z,83.50
2018-02-22T10:33:33.192Z,82.90
2018-02-22T10:36:00.716Z,79.53
2018-02-22T10:38:28.257Z,79.07
2018-02-22T10:40:55.777Z,71.77
2018-02-22T10:43:23.335Z,81.73
2018-02-22T10:45:50.849Z,75.47
2018-02-22T10:48:19.152Z,75.07
2018-02-22T10:50:46.666Z,82.30
2018-02-22T10:53:14.212Z,84.27
2018-02-22T10:55:41.764Z,79.73
2018-02-22T10:58:10.028Z,76.63
2018-02-22T11:00:43.142Z,72.57
2018-02-22T11:03:10.688Z,67.30
2018-02-22T11:05:38.202Z,79.87
2018-02-22T11:08:05.744Z,72.80
2018-02-22T11:10:34.015Z,68.87
2018-02-22T11:13:02.333Z,76.80
2018-02-22T11:15:29.852Z,71.93
2018-02-22T11:17:57.438Z,73.80
2018-02-22T11:20:24.954Z,68.27
2018-02-22T11:22:52.460Z,76.47
2018-02-22T11:25:20.040Z,79.97
2018-02-22T11:27:47.603Z,71.80
2018-02-22T11:30:15.132Z,75.37
2018-02-22T11:32:42.676Z,73.40
2018-02-22T11:35:10.182Z,73.67
2018-02-22T11:37:37.730Z,74.17
2018-02-22T11:40:05.278Z,69.63
2018-02-22T11:42:32.792Z,68.87
2018-02-22T11:45:00.340Z,68.87
2018-02-22T11:47:27.866Z,75.63
2018-02-22T11:49:55.412Z,75.47
2018-02-22T11:52:22.930Z,68.40
2018-02-22T11:54:50.480Z,66.67
2018-02-22T11:57:18.570Z,70.13
2018-02-22T11:59:46.899Z,73.77
2018-02-22T12:02:14.450Z,76.83
2018-02-22T12:04:42.008Z,65.93
2018-02-22T12:07:09.554Z,68.27
2018-02-22T12:09:37.095Z,65.00
2018-02-22T12:12:04.604Z,74.80
2018-02-22T12:14:32.167Z,69.30
2018-02-22T12:16:59.693Z,70.57
2018-02-22T12:19:27.282Z,69.47
2018-02-22T12:21:54.790Z,76.53
2018-02-22T12:24:22.362Z,76.33
2018-02-22T12:26:49.928Z,70.93
2018-02-22T12:29:17.564Z,74.37
2018-02-22T12:31:45.886Z,72.93
2018-02-22T12:34:14.137Z,74.37
2018-02-22T12:36:41.742Z,67.37
2018-02-22T12:39:09.344Z,79.30
2018-02-22T12:41:36.864Z,80.67
2018-02-22T12:44:04.470Z,79.87
2018-02-22T12:46:32.035Z,78.97
2018-02-22T12:48:59.625Z,70.73
2018-02-22T12:51:27.244Z,77.07
2018-02-22T12:53:54.844Z,84.53
2018-02-22T12:56:23.610Z,73.83
2018-02-22T12:58:51.217Z,75.13
2018-02-22T13:01:18.802Z,75.87
2018-02-22T13:03:47.188Z,73.10
2018-02-22T13:06:14.812Z,79.23
2018-02-22T13:08:42.394Z,73.73
2018-02-22T13:11:10.790Z,73.80
2018-02-22T13:13:38.370Z,79.37
2018-02-22T13:16:05.950Z,75.43
2018-02-22T13:18:34.722Z,76.27
2018-02-22T13:21:02.694Z,74.17
2018-02-22T13:23:31.557Z,75.60
2018-02-22T13:26:00.672Z,74.73
2018-02-22T13:28:28.241Z,70.73
2018-02-22T13:30:55.786Z,69.00
2018-02-22T13:33:35.086Z,71.00
2018-02-22T13:36:02.671Z,74.50
2018-02-22T13:38:41.953Z,77.23
2018-02-22T13:41:09.476Z,80.07
2018-02-22T13:43:37.036Z,80.13
2018-02-22T13:46:04.651Z,80.57
2018-02-22T13:48:43.904Z,79.17
2018-02-22T13:51:11.490Z,67.53
2018-02-22T13:53:39.052Z,73.87
2018-02-22T13:56:06.632Z,82.77
2018-02-22T13:58:34.184Z,74.63
2018-02-22T14:04:06.725Z,74.00
2018-02-22T14:06:34.453Z,82.07
2018-02-22T14:09:02.015Z,79.47
2018-02-22T14:11:29.574Z,80.43
2018-02-22T14:13:57.278Z,75.13
2018-02-22T14:16:25.666Z,86.23
2018-02-22T14:18:53.250Z,77.77
2018-02-22T14:21:20.785Z,89.50
2018-02-22T14:23:49.127Z,84.93
2018-02-22T14:26:16.670Z,86.73
2018-02-22T14:28:44.246Z,85.07
2018-02-22T14:31:11.827Z,86.03
2018-02-22T14:33:39.370Z,82.03
2018-02-22T14:36:06.926Z,81.07
2018-02-22T14:38:34.490Z,81.43
2018-02-22T14:41:02.050Z,86.27
2018-02-22T14:43:29.582Z,86.67
2018-02-22T14:45:57.152Z,87.40
2018-02-22T14:48:24.708Z,88.43
2018-02-22T14:50:52.290Z,90.00
2018-02-22T14:53:19.856Z,88.60
2018-02-22T14:55:47.432Z,83.73
2018-02-22T14:58:14.960Z,84.07
2018-02-22T15:00:48.194Z,94.20
2018-02-22T15:03:16.520Z,90.70
2018-02-22T15:05:44.796Z,82.03
2018-02-22T15:08:12.314Z,86.13
2018-02-22T15:10:40.670Z,94.17
2018-02-22T15:13:08.237Z,90.13
2018-02-22T15:15:36.610Z,95.53
2018-02-22T15:18:04.201Z,100.17
2018-02-22T15:20:31.784Z,107.80
2018-02-22T15:22:59.350Z,94.23
2018-02-22T15:25:26.937Z,99.27
2018-02-22T15:27:54.516Z,95.83
2018-02-22T15:30:22.085Z,98.43
2018-02-22T15:32:50.389Z,96.37
2018-02-22T15:35:18.745Z,101.97
2018-02-22T15:37:47.081Z,109.00
2018-02-22T15:40:14.669Z,106.03
2018-02-22T15:42:42.198Z,98.93
2018-02-22T15:45:09.937Z,108.60
2018-02-22T15:47:37.513Z,108.13
2018-02-22T15:50:05.088Z,111.03
2018-02-22T15:52:32.627Z,121.00
2018-02-22T15:55:00.228Z,104.43
2018-02-22T15:57:27.805Z,106.50
2018-02-22T15:59:56.159Z,98.65
2018-02-22T16:02:23.771Z,93.83
2018-02-22T16:04:52.502Z,102.27
2018-02-22T16:07:20.114Z,95.03
2018-02-22T16:09:47.705Z,100.27
2018-02-22T16:12:15.282Z,103.43
2018-02-22T16:14:42.871Z,98.23
2018-02-22T16:17:11.216Z,100.33
2018-02-22T16:19:38.773Z,104.80
2018-02-22T16:22:06.358Z,115.83
2018-02-22T16:24:33.960Z,102.53
2018-02-22T16:27:02.286Z,105.47
2018-02-22T16:29:29.864Z,100.97
2018-02-22T16:31:58.178Z,105.73
2018-02-22T16:34:25.746Z,104.97
2018-02-22T16:36:53.286Z,109.33
2018-02-22T16:39:20.895Z,115.10
2018-02-22T16:41:48.444Z,118.20
2018-02-22T16:44:16.032Z,105.17
2018-02-22T16:46:44.345Z,106.87
2018-02-22T16:49:11.909Z,104.47
2018-02-22T16:51:39.454Z,99.67
2018-02-22T16:54:07.854Z,99.30
2018-02-22T16:56:35.388Z,98.07
2018-02-22T16:59:02.940Z,103.13
2018-02-22T17:01:30.523Z,96.57
2018-02-22T17:03:58.147Z,105.47
2018-02-22T17:06:26.508Z,97.03
2018-02-22T17:08:54.078Z,98.53
2018-02-22T17:11:21.808Z,102.73
2018-02-22T17:13:49.367Z,103.03
2018-02-22T17:16:16.933Z,102.20
2018-02-22T17:18:44.507Z,99.53
2018-02-22T17:21:12.044Z,94.20
2018-02-22T17:23:39.688Z,81.07
2018-02-22T17:26:12.841Z,79.23
2018-02-22T17:28:46.916Z,72.07
2018-02-22T17:31:20.008Z,72.87
2018-02-22T17:33:47.590Z,64.47
2018-02-22T17:36:16.030Z,67.50
2018-02-22T17:38:58.524Z,63.77
2018-02-22T17:41:32.599Z,71.00
2018-02-22T17:44:00.899Z,69.97
2018-02-22T17:46:28.452Z,64.90
2018-02-22T17:48:55.973Z,73.43
2018-02-22T17:51:23.636Z,67.67
2018-02-22T17:53:51.174Z,68.87
2018-02-22T17:56:18.748Z,64.33
2018-02-22T17:58:46.305Z,67.83
2018-02-22T18:01:13.829Z,62.90
2018-02-22T18:03:41.396Z,56.77
2018-02-22T18:06:09.021Z,60.53
2018-02-22T18:08:37.344Z,60.23
2018-02-22T18:11:04.938Z,68.30
2018-02-22T18:13:32.510Z,67.73
2018-02-22T18:16:00.092Z,61.30
2018-02-22T18:18:27.624Z,56.13
2018-02-22T18:20:55.998Z,60.70
2018-02-22T18:23:23.710Z,62.27
2018-02-22T18:25:51.373Z,59.97
2018-02-22T18:28:18.990Z,50.00
2018-02-22T18:30:46.645Z,55.33
2018-02-22T18:33:15.049Z,57.60
2018-02-22T18:35:42.615Z,54.00
2018-02-22T18:38:10.200Z,52.27
2018-02-22T18:40:43.402Z,53.47
2018-02-22T18:43:27.844Z,48.93
2018-02-22T18:45:55.482Z,53.22
2018-02-22T18:48:23.884Z,49.90
2018-02-22T18:50:51.462Z,51.27
2018-02-22T18:53:19.107Z,54.27
2018-02-22T18:55:46.712Z,53.40
2018-02-22T18:58:14.347Z,49.33
2018-02-22T19:00:41.946Z,55.83
2018-02-22T19:03:09.552Z,55.63
2018-02-22T19:05:37.253Z,51.97
2018-02-22T19:08:04.739Z,50.60
2018-02-22T19:10:32.320Z,48.00
2018-02-22T19:12:59.863Z,49.40
2018-02-22T19:15:28.227Z,50.63
2018-02-22T19:17:56.576Z,55.10
2018-02-22T19:20:24.165Z,55.17
2018-02-22T19:22:52.495Z,51.63
2018-02-22T19:25:20.085Z,54.87
2018-02-22T19:27:47.666Z,52.33
2018-02-22T19:30:16.015Z,58.10
2018-02-22T19:32:43.587Z,56.27
2018-02-22T19:35:11.204Z,51.40
2018-02-22T19:37:38.752Z,48.33
2018-02-22T19:40:06.324Z,51.00
2018-02-22T19:42:33.890Z,59.97
2018-02-22T19:45:01.479Z,52.15
2018-02-22T19:47:29.036Z,49.53
2018-02-22T19:49:56.650Z,48.33
2018-02-22T19:52:24.275Z,50.65
2018-02-22T19:54:51.869Z,50.53
2018-02-22T19:57:19.413Z,52.67
2018-02-22T19:59:48.186Z,55.50
2018-02-22T20:02:15.729Z,55.07
2018-02-22T20:04:43.273Z,59.27
2018-02-22T20:07:10.853Z,49.33
2018-02-22T20:09:38.416Z,53.10
2018-02-22T20:12:06.005Z,51.03
2018-02-22T20:14:33.553Z,55.37
2018-02-22T20:17:01.897Z,55.57
2018-02-22T20:19:29.436Z,57.40
2018-02-22T20:21:57.036Z,56.40
2018-02-22T20:24:24.591Z,57.37
2018-02-22T20:26:52.172Z,52.85
2018-02-22T20:29:20.534Z,57.57
2018-02-22T20:31:48.077Z,56.43
2018-02-22T20:34:15.645Z,58.53
2018-02-22T20:36:43.198Z,55.77
2018-02-22T20:39:10.782Z,56.63
2018-02-22T20:41:39.087Z,53.50
2018-02-22T20:44:06.665Z,56.17
2018-02-22T20:46:34.250Z,51.27
2018-02-22T20:49:01.778Z,52.10
2018-02-22T20:51:31.140Z,50.93
2018-02-22T20:53:59.450Z,50.37
2018-02-22T20:56:27.057Z,53.47
2018-02-22T20:58:54.607Z,55.50
2018-02-22T21:01:22.970Z,51.60
2018-02-22T21:03:50.521Z,53.05
2018-02-22T21:06:18.123Z,50.27
2018-02-22T21:08:45.682Z,50.73
2018-02-22T21:11:13.302Z,51.97
2018-02-22T21:13:40.843Z,50.77
2018-02-22T21:16:08.544Z,50.67
2018-02-22T21:18:36.093Z,52.90
2018-02-22T21:21:03.685Z,51.00
2018-02-22T21:23:31.219Z,51.23
2018-02-22T21:25:58.791Z,53.97
2018-02-22T21:28:26.338Z,56.43
2018-02-22T21:30:53.946Z,50.03
2018-02-22T21:33:21.464Z,53.57
2018-02-22T21:35:49.061Z,53.37
2018-02-22T21:38:17.346Z,50.00
2018-02-22T21:40:45.691Z,48.53
2018-02-22T21:43:13.245Z,50.03
2018-02-22T21:45:40.793Z,53.10
2018-02-22T21:48:08.323Z,55.20
2018-02-22T21:50:35.892Z,49.77
2018-02-22T21:53:03.436Z,45.50
2018-02-22T21:55:31.016Z,50.10
2018-02-22T21:57:58.541Z,51.93
2018-02-22T22:00:26.903Z,46.10
2018-02-22T22:02:55.216Z,47.43
2018-02-22T22:05:22.817Z,50.53
2018-02-22T22:07:50.363Z,50.37
2018-02-22T22:10:17.921Z,50.97
2018-02-22T22:12:45.450Z,49.97
2018-02-22T22:15:13.052Z,52.37
2018-02-22T22:17:40.590Z,55.03
2018-02-22T22:20:08.155Z,58.17
2018-02-22T22:22:35.715Z,50.57
2018-02-22T22:25:03.609Z,49.83
2018-02-22T22:27:31.174Z,54.13
2018-02-22T22:29:58.739Z,48.63
2018-02-22T22:32:26.299Z,54.53
2018-02-22T22:34:54.025Z,47.63
2018-02-22T22:37:21.576Z,47.87
2018-02-22T22:39:49.195Z,47.87
2018-02-22T22:42:17.512Z,55.07
2018-02-22T22:44:45.091Z,49.50
2018-02-22T22:47:12.648Z,54.00
2018-02-22T22:49:41.526Z,54.13
2018-02-22T22:52:09.117Z,49.83
2018-02-22T22:54:36.728Z,47.20
2018-02-22T22:57:04.309Z,51.27
2018-02-22T22:59:31.839Z,51.67
2018-02-22T23:01:59.423Z,48.40
2018-02-22T23:04:27.043Z,52.10
2018-02-22T23:06:55.379Z,50.47
2018-02-22T23:09:22.919Z,48.70
2018-02-22T23:11:50.491Z,53.33
2018-02-22T23:14:18.062Z,51.50
2018-02-22T23:16:45.692Z,50.87
2018-02-22T23:19:13.232Z,52.87
2018-02-22T23:21:40.811Z,53.77
2018-02-22T23:24:08.390Z,54.67
2018-02-22T23:26:35.981Z,54.03
2018-02-22T23:29:03.584Z,61.27
2018-02-22T23:31:31.182Z,50.77
2018-02-22T23:33:58.753Z,58.47
2018-02-22T23:36:26.333Z,53.87
2018-02-22T23:38:54.627Z,57.40
2018-02-22T23:41:28.487Z,57.83
2018-02-22T23:43:56.034Z,55.10
2018-02-22T23:46:23.676Z,56.30
2018-02-22T23:48:51.281Z,62.57
2018-02-22T23:51:18.821Z,55.90
2018-02-22T23:53:46.503Z,56.53
2018-02-22T23:56:14.029Z,52.90
2018-02-22T23:58:41.592Z,53.83
